Time;durP1;ratioP1;P1;durP2;ratioP2;P2;SDS_P1;SDS_P2;PMS_P1;PMS_P2;Temp;Humidity;BMP_temperature;BMP_pressure;BME280_temperature;BME280_humidity;BME280_pressure;Samples;Min_cycle;Max_cycle;Signal;HPM_P1;HPM_P2
2022/06/29 04:17:56;;;;;;;7.28;4.95;;;;;;;19.09;98.07;99992.66;4876251;29;20052;-62
2022/06/29 04:23:05;;;;;;;9.25;5.32;;;;;;;19.19;97.52;99992.91;4877825;29;20045;-62
2022/06/29 04:25:31;;;;;;;8.30;5.68;;;;;;;19.13;98.91;99985.72;4877906;29;20387;-62
2022/06/29 04:27:59;;;;;;;8.75;4.85;;;;;;;19.18;98.02;99993.97;4877884;29;20562;-59
2022/06/29 04:30:24;;;;;;;10.15;6.65;;;;;;;19.20;97.74;99994.53;4877981;29;20065;-61
2022/06/29 04:32:50;;;;;;;11.18;7.32;;;;;;;19.21;97.19;99989.94;4877670;29;20064;-62
2022/06/29 04:35:15;;;;;;;8.30;5.78;;;;;;;19.24;97.24;99990.31;4877673;29;20112;-62
2022/06/29 04:37:41;;;;;;;7.80;5.40;;;;;;;19.27;96.64;99988.19;4877583;29;20513;-62
2022/06/29 04:40:07;;;;;;;7.68;5.13;;;;;;;19.28;96.79;99992.53;4891613;29;20048;-63
2022/06/29 04:42:32;;;;;;;11.32;5.53;;;;;;;19.24;96.14;99990.31;4876423;29;20052;-64
2022/06/29 04:44:57;;;;;;;9.13;5.50;;;;;;;19.27;96.59;99989.00;4877645;29;20288;-64
2022/06/29 04:47:23;;;;;;;7.63;4.90;;;;;;;19.30;95.38;99993.94;4877611;29;20082;-64
2022/06/29 04:49:48;;;;;;;8.25;4.78;;;;;;;19.32;95.05;99986.44;4880839;29;20080;-64
2022/06/29 04:52:14;;;;;;;6.93;5.18;;;;;;;19.32;95.49;99991.00;4881206;29;20041;-64
2022/06/29 04:54:39;;;;;;;8.80;5.80;;;;;;;19.33;95.04;99985.38;4881208;29;20048;-64
2022/06/29 04:57:07;;;;;;;7.85;5.63;;;;;;;19.41;96.34;99994.97;4881028;29;20025;-63
2022/06/29 04:59:32;;;;;;;8.02;5.20;;;;;;;19.47;96.00;99994.84;4880937;29;20052;-64
2022/06/29 05:01:58;;;;;;;9.77;6.20;;;;;;;19.51;97.59;100003.31;4881147;29;20033;-64
2022/06/29 05:04:23;;;;;;;7.35;4.70;;;;;;;19.59;96.15;99996.75;4879655;29;20041;-64
2022/06/29 05:06:49;;;;;;;7.63;4.97;;;;;;;19.65;95.90;99998.50;4881004;29;20180;-62
2022/06/29 05:09:14;;;;;;;7.95;4.60;;;;;;;19.65;97.59;100006.59;4879461;29;20047;-63
2022/06/29 05:11:40;;;;;;;7.65;5.45;;;;;;;19.65;94.39;100004.72;4880754;29;20056;-64
2022/06/29 05:14:05;;;;;;;10.27;5.35;;;;;;;19.72;93.29;100001.88;4880863;29;20067;-64
2022/06/29 05:16:30;;;;;;;10.55;5.40;;;;;;;19.74;93.79;100011.38;4880714;29;20558;-61
2022/06/29 05:18:56;;;;;;;11.25;5.50;;;;;;;19.81;93.40;100005.03;4880508;29;20044;-63
2022/06/29 05:21:21;;;;;;;7.57;5.13;;;;;;;19.85;93.33;100003.50;4880709;29;20033;-63
2022/06/29 05:23:47;;;;;;;8.52;5.38;;;;;;;19.86;93.39;100005.94;4880535;29;20483;-63
2022/06/29 05:26:13;;;;;;;8.88;5.97;;;;;;;19.86;93.72;99997.84;4880516;29;20049;-64
2022/06/29 05:28:39;;;;;;;16.35;6.25;;;;;;;19.86;93.42;100003.25;4880271;29;20491;-63
2022/06/29 05:31:04;;;;;;;8.25;4.72;;;;;;;19.88;92.89;100005.69;4880625;29;20467;-64
2022/06/29 05:33:36;;;;;;;10.05;5.13;;;;;;;19.89;93.04;100004.66;4880687;29;20041;-64
2022/06/29 05:36:08;;;;;;;9.18;4.80;;;;;;;19.95;90.93;100012.63;4880499;29;20056;-64
2022/06/29 05:38:34;;;;;;;11.77;4.68;;;;;;;20.01;91.12;100002.72;4879996;29;20093;-64
2022/06/29 05:41:00;;;;;;;6.10;4.90;;;;;;;20.02;89.45;100009.78;4880558;29;20044;-64
2022/06/29 05:43:27;;;;;;;11.98;4.72;;;;;;;20.05;88.41;99995.78;4880211;29;20049;-51
2022/06/29 05:45:53;;;;;;;10.85;4.88;;;;;;;20.00;88.22;99998.38;4880434;29;20045;-50
2022/06/29 05:48:19;;;;;;;10.05;5.22;;;;;;;20.03;88.07;100000.63;4863453;29;20242;-55
2022/06/29 05:50:44;;;;;;;8.02;5.70;;;;;;;20.11;87.75;100002.94;4880206;29;20124;-54
2022/06/29 05:53:10;;;;;;;6.50;5.57;;;;;;;20.18;87.94;99994.66;4880156;29;20036;-51
2022/06/29 05:55:35;;;;;;;6.63;5.63;;;;;;;20.25;87.89;99998.88;4880206;29;20456;-52
2022/06/29 05:58:00;;;;;;;8.93;6.88;;;;;;;20.48;86.12;100005.25;4880154;29;20029;-50
2022/06/29 06:00:26;;;;;;;7.78;6.35;;;;;;;20.69;85.21;100004.53;4878897;29;20559;-50
2022/06/29 06:02:52;;;;;;;10.32;6.25;;;;;;;20.99;82.86;100000.66;4880040;29;20554;-51
2022/06/29 06:05:17;;;;;;;9.40;6.28;;;;;;;21.02;82.96;100001.00;4879861;29;20037;-50
2022/06/29 06:07:43;;;;;;;7.78;6.35;;;;;;;20.99;83.29;100001.47;4879910;29;20513;-50
2022/06/29 06:10:09;;;;;;;8.70;5.53;;;;;;;20.93;83.74;100002.50;4879689;29;20037;-50
2022/06/29 06:12:34;;;;;;;9.45;5.88;;;;;;;20.96;83.55;100001.16;4879973;29;20037;-53
2022/06/29 06:15:01;;;;;;;9.70;6.90;;;;;;;20.92;83.82;100002.72;4879830;29;20447;-56
2022/06/29 06:17:27;;;;;;;8.27;6.03;;;;;;;20.93;84.95;100002.50;4879714;29;20422;-54
2022/06/29 06:19:54;;;;;;;8.30;6.40;;;;;;;20.93;84.40;100001.66;4879420;29;20285;-54
2022/06/29 06:22:19;;;;;;;11.57;6.37;;;;;;;20.96;85.87;99999.28;4879614;29;20037;-50
2022/06/29 06:24:45;;;;;;;9.68;5.97;;;;;;;21.00;85.53;100002.31;4879658;29;20628;-58
2022/06/29 06:27:10;;;;;;;9.20;6.30;;;;;;;21.06;85.86;100004.00;4879513;29;20396;-52
2022/06/29 06:29:36;;;;;;;7.47;6.38;;;;;;;21.05;84.87;100002.38;4879373;29;20060;-56
2022/06/29 06:32:01;;;;;;;8.93;6.13;;;;;;;21.07;83.70;100000.25;4879672;29;20041;-54
2022/06/29 06:34:27;;;;;;;11.10;6.00;;;;;;;21.20;83.98;99996.38;4879412;29;20033;-51
2022/06/29 06:36:53;;;;;;;9.07;5.45;;;;;;;21.24;84.04;100001.03;4879433;29;20503;-57
2022/06/29 06:39:19;;;;;;;7.05;6.03;;;;;;;21.32;84.22;99994.41;4879013;29;20547;-56
2022/06/29 06:41:44;;;;;;;9.90;5.90;;;;;;;21.47;83.38;99997.34;4879377;29;20045;-59
2022/06/29 06:44:09;;;;;;;9.18;6.35;;;;;;;21.59;81.82;99998.03;4879174;29;20073;-58
2022/06/29 06:46:35;;;;;;;8.55;6.05;;;;;;;21.73;82.09;100000.38;4879261;29;20128;-59
2022/06/29 06:49:01;;;;;;;9.45;5.90;;;;;;;21.79;82.65;100004.78;4878806;29;20044;-53
2022/06/29 06:51:26;;;;;;;8.52;6.22;;;;;;;21.82;81.01;100010.50;4879149;29;20475;-54
2022/06/29 06:53:52;;;;;;;8.48;5.57;;;;;;;21.89;80.59;100002.19;4893520;29;20041;-54
2022/06/29 06:56:18;;;;;;;7.22;5.40;;;;;;;22.00;81.78;100006.66;4878991;29;20045;-51
2022/06/29 06:58:44;;;;;;;7.78;5.72;;;;;;;22.07;81.94;99998.31;4878693;29;20545;-51
2022/06/29 07:01:10;;;;;;;8.02;5.60;;;;;;;22.15;82.72;100003.31;4878855;29;20411;-55
2022/06/29 07:03:36;;;;;;;7.97;5.72;;;;;;;22.25;81.61;100003.44;4878964;29;20611;-55
2022/06/29 07:06:10;;;;;;;7.47;5.68;;;;;;;22.16;81.51;100003.06;4878743;29;20055;-57
2022/06/29 07:08:38;;;;;;;10.98;6.10;;;;;;;22.23;82.44;100008.28;4878504;29;20055;-58
2022/06/29 07:11:05;;;;;;;9.27;6.30;;;;;;;22.35;78.98;100008.94;4878766;29;20048;-57
2022/06/29 07:13:34;;;;;;;8.60;5.60;;;;;;;22.42;78.69;100009.56;4878712;29;20072;-57
2022/06/29 07:16:03;;;;;;;8.48;5.35;;;;;;;22.55;78.30;100011.03;4878626;29;20037;-57
2022/06/29 07:18:29;;;;;;;9.57;5.38;;;;;;;22.66;78.13;100007.34;4878386;29;20075;-56
2022/06/29 07:20:55;;;;;;;7.03;4.70;;;;;;;22.80;76.52;100006.91;4878663;29;20041;-59
2022/06/29 07:23:20;;;;;;;7.10;5.25;;;;;;;22.86;75.50;99998.56;4878459;29;20067;-57
2022/06/29 07:25:46;;;;;;;8.13;5.43;;;;;;;23.08;75.89;99998.44;4878651;29;20037;-56
2022/06/29 07:28:11;;;;;;;6.28;5.10;;;;;;;23.22;74.44;100002.38;4878347;29;20029;-56
2022/06/29 07:30:37;;;;;;;9.77;5.40;;;;;;;23.24;73.34;100004.81;4878345;29;20547;-59
2022/06/29 07:33:03;;;;;;;7.00;5.30;;;;;;;23.34;72.45;99998.59;4878341;29;20132;-57
2022/06/29 07:35:29;;;;;;;7.32;5.25;;;;;;;23.37;75.22;100003.53;4878173;29;20049;-54
2022/06/29 07:37:54;;;;;;;6.47;4.85;;;;;;;23.40;72.72;100003.81;4878288;29;20041;-58
2022/06/29 07:40:21;;;;;;;6.60;5.00;;;;;;;23.45;73.96;99995.69;4877796;29;20059;-59
2022/06/29 07:42:46;;;;;;;6.87;4.90;;;;;;;23.63;73.78;99999.88;4878285;29;20401;-56
2022/06/29 07:45:12;;;;;;;5.78;4.45;;;;;;;23.73;73.70;99996.38;4878013;29;20093;-57
2022/06/29 07:47:38;;;;;;;9.55;5.25;;;;;;;23.67;74.01;99994.72;4878133;29;20426;-57
2022/06/29 07:50:04;;;;;;;6.78;5.22;;;;;;;23.80;72.04;99996.97;4877734;29;20122;-59
2022/06/29 07:52:33;;;;;;;8.57;4.97;;;;;;;23.91;72.30;99997.81;4878077;29;20060;-57
2022/06/29 07:54:58;;;;;;;6.78;4.75;;;;;;;24.01;73.68;100003.28;4877968;29;20467;-59
2022/06/29 07:57:24;;;;;;;7.90;4.97;;;;;;;24.12;72.32;99994.06;4878013;29;20036;-59
2022/06/29 07:59:49;;;;;;;5.97;4.60;;;;;;;24.14;73.55;99999.25;4877770;29;20051;-57
2022/06/29 08:02:15;;;;;;;5.57;4.55;;;;;;;24.29;70.57;99993.81;4877973;29;20051;-56
2022/06/29 08:04:40;;;;;;;6.78;4.50;;;;;;;24.38;70.05;99997.66;4877921;29;20049;-56
2022/06/29 08:07:06;;;;;;;7.25;4.72;;;;;;;24.33;69.75;100000.38;4877919;29;20044;-57
2022/06/29 08:09:32;;;;;;;6.78;4.35;;;;;;;24.36;67.97;100003.41;4877864;29;20076;-59
2022/06/29 08:11:57;;;;;;;6.43;4.55;;;;;;;24.23;67.77;100000.34;4876674;29;20047;-60
2022/06/29 08:14:23;;;;;;;5.30;4.15;;;;;;;24.40;67.87;100006.41;4877843;29;20521;-58
2022/06/29 08:16:48;;;;;;;5.95;4.20;;;;;;;24.34;69.84;100002.03;4877719;29;20041;-52
2022/06/29 08:19:13;;;;;;;5.55;4.38;;;;;;;24.42;71.34;100006.94;4877482;29;20045;-58
2022/06/29 08:21:39;;;;;;;6.15;4.82;;;;;;;24.43;69.79;99999.59;4877888;29;20076;-60
2022/06/29 08:24:04;;;;;;;7.03;4.55;;;;;;;24.38;67.26;100003.13;4880241;29;20033;-59
2022/06/29 08:26:30;;;;;;;5.03;4.53;;;;;;;24.39;67.69;100004.78;4881709;29;20417;-58
2022/06/29 08:28:55;;;;;;;5.80;4.78;;;;;;;24.24;67.79;99996.53;4881514;29;20460;-56
2022/06/29 08:31:21;;;;;;;9.65;4.85;;;;;;;24.35;68.05;100012.66;4881661;29;20064;-58
2022/06/29 08:33:46;;;;;;;9.40;4.90;;;;;;;24.24;68.69;99991.91;4881619;29;20502;-58
2022/06/29 08:36:12;;;;;;;5.60;4.43;;;;;;;24.18;69.63;99998.41;4881439;29;20068;-58
2022/06/29 08:38:38;;;;;;;6.05;4.38;;;;;;;24.13;69.60;99992.19;4895672;29;20041;-58
2022/06/29 08:41:04;;;;;;;5.90;4.88;;;;;;;24.19;70.00;99993.78;4881572;29;20041;-59
2022/06/29 08:43:30;;;;;;;5.88;5.15;;;;;;;24.32;71.62;100004.16;4881167;29;20347;-56
2022/06/29 08:45:55;;;;;;;4.97;4.47;;;;;;;24.40;70.83;100013.75;4881236;29;20495;-58
2022/06/29 08:48:21;;;;;;;8.23;4.75;;;;;;;24.42;71.52;100008.84;4880951;29;20037;-57
2022/06/29 08:50:52;;;;;;;5.30;4.28;;;;;;;24.47;70.67;100006.94;4881226;29;20073;-54
2022/06/29 08:53:17;;;;;;;7.03;4.57;;;;;;;24.41;67.96;100012.66;4881271;29;20458;-60
2022/06/29 08:55:45;;;;;;;6.03;5.00;;;;;;;24.40;68.23;100009.13;4881226;29;20036;-57
2022/06/29 08:58:17;;;;;;;6.82;4.68;;;;;;;24.53;70.04;100007.78;4880990;29;20040;-59
2022/06/29 09:00:43;;;;;;;5.40;4.65;;;;;;;24.79;68.17;100003.97;4880995;29;20053;-60
2022/06/29 09:03:08;;;;;;;7.47;4.20;;;;;;;25.13;70.23;100006.97;4880992;29;20045;-58
2022/06/29 09:05:34;;;;;;;5.10;4.60;;;;;;;25.36;67.68;100002.00;4881194;29;20037;-58
2022/06/29 09:08:00;;;;;;;8.02;4.40;;;;;;;25.45;68.23;100008.53;4880832;29;20040;-60
2022/06/29 09:10:29;;;;;;;4.97;4.38;;;;;;;25.60;65.82;100013.94;4880537;29;20037;-59
2022/06/29 09:12:57;;;;;;;5.35;4.55;;;;;;;25.60;66.55;100011.19;4880836;29;20049;-58
2022/06/29 09:15:32;;;;;;;5.68;4.05;;;;;;;25.61;65.12;100014.75;4880453;29;20029;-57
2022/06/29 09:17:58;;;;;;;5.97;4.47;;;;;;;25.73;64.15;100003.56;4880714;29;20044;-59
2022/06/29 09:20:24;;;;;;;5.32;4.28;;;;;;;25.56;63.89;100010.16;4880555;29;20039;-57
2022/06/29 09:22:55;;;;;;;7.60;4.97;;;;;;;25.52;64.83;100017.22;4880648;29;20037;-59
2022/06/29 09:25:22;;;;;;;7.13;4.70;;;;;;;25.83;64.39;100009.78;4880453;29;20130;-57
2022/06/29 09:27:48;;;;;;;8.30;4.18;;;;;;;26.09;66.04;100013.22;4880538;29;20419;-56
2022/06/29 09:30:30;;;;;;;7.15;4.50;;;;;;;25.97;64.46;100013.53;4880257;29;20045;-55
2022/06/29 09:33:00;;;;;;;8.35;4.80;;;;;;;26.01;61.46;100016.50;4880521;29;20036;-55
2022/06/29 09:35:27;;;;;;;6.72;4.50;;;;;;;25.80;61.83;100017.69;4880306;29;20128;-58
2022/06/29 09:37:52;;;;;;;5.82;4.20;;;;;;;25.63;61.11;100007.94;4880489;29;20049;-57
2022/06/29 09:40:17;;;;;;;8.45;4.28;;;;;;;25.60;64.05;100015.84;4880079;29;20041;-57
2022/06/29 09:42:43;;;;;;;7.65;4.63;;;;;;;25.61;62.38;100017.47;4880287;29;20044;-57
2022/06/29 09:45:09;;;;;;;5.18;3.75;;;;;;;25.47;63.93;100011.78;4880180;29;20025;-54
2022/06/29 09:47:38;;;;;;;6.07;4.13;;;;;;;25.51;62.21;100017.50;4880255;29;20059;-58
2022/06/29 09:50:08;;;;;;;7.78;4.30;;;;;;;25.37;61.88;100017.28;4879998;29;20089;-60
2022/06/29 09:52:37;;;;;;;5.88;4.35;;;;;;;25.42;62.27;100009.06;4880256;29;20041;-58
2022/06/29 09:55:06;;;;;;;5.32;4.30;;;;;;;25.40;63.42;100011.25;4881481;29;20025;-58
2022/06/29 09:57:36;;;;;;;4.63;3.75;;;;;;;25.16;61.18;100003.66;4880038;29;20115;-54
2022/06/29 10:02:51;;;;;;;8.63;3.92;;;;;;;24.95;62.76;100012.13;4880115;29;20055;-58
2022/06/29 10:05:20;;;;;;;5.60;3.63;;;;;;;25.02;60.81;100008.03;4879863;29;20033;-61
2022/06/29 10:07:51;;;;;;;4.90;3.42;;;;;;;25.05;61.19;100004.00;4881155;29;20068;-59
2022/06/29 10:10:19;;;;;;;4.93;3.70;;;;;;;25.02;61.62;100001.75;4880404;29;20051;-59
2022/06/29 10:16:02;;;;;;;5.03;3.75;;;;;;;25.13;62.56;99990.63;4880578;29;20037;-61
2022/06/29 10:18:46;;;;;;;5.35;3.78;;;;;;;25.07;61.49;100002.63;4895604;29;20056;-58
2022/06/29 10:21:22;;;;;;;4.20;3.53;;;;;;;25.06;62.59;100000.97;4881035;29;20168;-58
2022/06/29 10:23:52;;;;;;;6.13;4.07;;;;;;;25.27;63.71;99996.31;4880174;29;20033;-60
2022/06/29 10:26:31;;;;;;;5.43;3.85;;;;;;;25.39;65.08;99991.38;4879833;29;20052;-59
2022/06/29 10:29:19;;;;;;;5.10;3.78;;;;;;;25.40;63.69;99990.28;4879317;29;20551;-58
2022/06/29 10:31:51;;;;;;;5.32;3.70;;;;;;;26.03;61.07;99984.31;4867402;29;20470;-57
2022/06/29 10:34:32;;;;;;;5.03;3.78;;;;;;;26.62;60.72;99985.31;4878069;29;20060;-58
2022/06/29 10:37:14;;;;;;;4.55;3.38;;;;;;;27.38;56.21;99981.03;4878893;29;20041;-56
2022/06/29 10:39:45;;;;;;;6.10;3.80;;;;;;;27.95;56.42;99982.00;4878496;29;20579;-58
2022/06/29 10:45:32;;;;;;;6.20;3.53;;;;;;;28.11;51.98;99978.75;4880988;29;20041;-55
2022/06/29 10:47:58;;;;;;;5.45;3.35;;;;;;;28.60;49.78;99977.47;4879812;29;20068;-58
2022/06/29 10:50:30;;;;;;;4.22;3.30;;;;;;;28.98;50.31;99982.06;4880442;29;20499;-55
2022/06/29 10:52:58;;;;;;;3.42;3.13;;;;;;;29.22;49.73;99970.94;4879908;29;20037;-59
2022/06/29 10:55:28;;;;;;;3.90;3.28;;;;;;;29.09;47.62;99978.84;4877420;29;20407;-58
2022/06/29 10:57:54;;;;;;;4.55;3.13;;;;;;;29.52;49.08;99977.75;4878989;29;20088;-60
2022/06/29 11:00:52;;;;;;;4.88;3.15;;;;;;;29.77;46.08;99973.69;4877833;29;20037;-57
2022/06/29 11:03:25;;;;;;;4.07;2.70;;;;;;;30.33;45.95;99980.69;4877183;29;20033;-59
2022/06/29 11:16:59;;;;;;;3.25;2.40;;;;;;;29.41;42.54;99977.13;4878296;29;20140;-57
2022/06/29 11:19:36;;;;;;;4.35;2.40;;;;;;;29.02;45.08;99980.34;4877967;29;20096;-57
2022/06/29 11:22:15;;;;;;;3.95;2.50;;;;;;;29.33;46.19;99975.91;4878405;29;20037;-54
2022/06/29 11:24:51;;;;;;;5.03;2.60;;;;;;;29.37;44.63;99973.38;4877977;29;20076;-55
2022/06/29 11:27:37;;;;;;;3.97;2.30;;;;;;;29.45;45.69;99967.97;4878428;29;20048;-56
2022/06/29 11:30:08;;;;;;;3.22;2.45;;;;;;;30.02;46.11;99977.81;4877767;29;20391;-59
2022/06/29 11:32:44;;;;;;;3.90;2.40;;;;;;;29.87;45.28;99967.97;4878003;29;20568;-59
2022/06/29 11:35:12;;;;;;;3.97;2.05;;;;;;;29.97;44.15;99967.72;4877976;29;20104;-59
2022/06/29 11:37:48;;;;;;;3.88;2.30;;;;;;;29.39;46.16;99965.63;4878297;29;20045;-59
2022/06/29 11:40:14;;;;;;;3.90;2.50;;;;;;;29.62;45.64;99956.41;4877294;29;20056;-59
2022/06/29 11:45:35;;;;;;;2.85;2.20;;;;;;;29.70;43.25;99949.38;4877564;29;20077;-59
2022/06/29 11:48:10;;;;;;;5.60;2.17;;;;;;;29.78;42.58;99948.66;4878093;29;20048;-58
2022/06/29 11:50:56;;;;;;;4.55;2.20;;;;;;;29.13;43.30;99954.34;4877543;29;20037;-61
2022/06/29 11:53:48;;;;;;;3.30;2.40;;;;;;;29.46;44.99;99944.91;4878068;29;20079;-61
2022/06/29 11:56:16;;;;;;;2.40;2.20;;;;;;;29.93;44.79;99948.34;4877838;29;20072;-61
2022/06/29 11:58:44;;;;;;;6.18;2.22;;;;;;;30.21;44.95;99945.53;4876265;29;20048;-61
2022/06/29 12:01:12;;;;;;;2.42;2.00;;;;;;;30.35;44.41;99951.78;4877911;29;20143;-59
2022/06/29 12:03:39;;;;;;;3.28;1.95;;;;;;;30.46;41.61;99944.91;4877659;29;20041;-61
2022/06/29 12:06:05;;;;;;;2.65;2.10;;;;;;;30.57;44.04;99939.94;4877927;29;20524;-61
2022/06/29 12:08:31;;;;;;;2.53;2.03;;;;;;;31.05;41.18;99937.34;4877701;29;20113;-59
2022/06/29 12:10:57;;;;;;;2.78;2.20;;;;;;;31.45;42.10;99939.28;4878023;29;20285;-61
2022/06/29 12:13:23;;;;;;;2.78;2.13;;;;;;;31.76;41.80;99934.50;4877972;29;20514;-61
2022/06/29 12:15:49;;;;;;;3.08;2.45;;;;;;;31.79;40.37;99931.13;4892100;29;20068;-61
2022/06/29 12:18:16;;;;;;;2.63;2.10;;;;;;;32.00;41.63;99928.53;4877738;29;20072;-61
2022/06/29 12:20:42;;;;;;;3.83;2.47;;;;;;;32.00;42.11;99931.28;4877662;29;20406;-61
2022/06/29 12:23:08;;;;;;;4.10;2.40;;;;;;;31.95;40.15;99928.72;4877976;29;20067;-61
2022/06/29 12:25:33;;;;;;;2.50;2.30;;;;;;;31.57;38.54;99922.97;4877769;29;20470;-60
2022/06/29 12:27:59;;;;;;;2.80;2.10;;;;;;;31.58;38.45;99921.84;4877938;29;20798;-61
2022/06/29 12:30:24;;;;;;;2.40;2.10;;;;;;;31.99;40.00;99923.38;4876397;29;20036;-60
2022/06/29 12:32:50;;;;;;;2.47;2.27;;;;;;;31.83;40.20;99918.34;4877860;29;20080;-61
2022/06/29 12:35:15;;;;;;;2.13;1.93;;;;;;;32.24;40.68;99914.28;4877685;29;20123;-61
2022/06/29 12:37:43;;;;;;;2.37;2.00;;;;;;;32.54;37.44;99915.25;4877824;29;20048;-61
2022/06/29 12:40:14;;;;;;;4.18;2.20;;;;;;;32.32;37.54;99924.47;4891441;29;20055;-61
2022/06/29 12:42:40;;;;;;;2.45;2.20;;;;;;;31.12;38.72;99908.56;4877764;29;20052;-62
2022/06/29 12:45:07;;;;;;;3.25;2.17;;;;;;;31.91;37.47;99904.91;4877711;29;20041;-61
2022/06/29 12:47:32;;;;;;;3.22;1.92;;;;;;;32.61;38.65;99912.00;4877575;29;20124;-61
2022/06/29 12:50:00;;;;;;;3.73;2.30;;;;;;;33.10;38.05;99904.19;4877332;29;20120;-61
2022/06/29 12:52:26;;;;;;;3.05;2.00;;;;;;;32.98;39.81;99907.66;4877563;29;20518;-61
2022/06/29 12:54:51;;;;;;;2.30;2.10;;;;;;;33.68;37.83;99908.13;4891838;29;20041;-61
2022/06/29 12:57:16;;;;;;;3.00;1.97;;;;;;;33.26;37.23;99902.50;4877569;29;20045;-61
2022/06/29 12:59:42;;;;;;;3.30;2.10;;;;;;;33.85;36.23;99896.94;4891836;29;20049;-60
2022/06/29 13:02:09;;;;;;;3.47;2.00;;;;;;;33.60;36.50;99896.00;4891928;29;20041;-61
2022/06/29 13:04:34;;;;;;;2.90;2.08;;;;;;;33.84;37.77;99898.06;4877514;29;20108;-60
2022/06/29 13:07:00;;;;;;;3.40;1.73;;;;;;;34.26;36.15;99893.34;4891763;29;20041;-61
2022/06/29 13:09:26;;;;;;;3.10;1.87;;;;;;;34.48;36.03;99892.16;4878518;29;20088;-61
2022/06/29 13:11:51;;;;;;;2.53;1.93;;;;;;;34.00;37.79;99887.25;4880981;29;20426;-61
2022/06/29 13:14:17;;;;;;;5.43;2.13;;;;;;;33.78;37.11;99884.78;4880928;29;20033;-62
2022/06/29 13:16:42;;;;;;;2.23;2.00;;;;;;;33.17;37.00;99883.22;4880661;29;20045;-60
2022/06/29 13:19:08;;;;;;;3.50;2.20;;;;;;;33.23;37.03;99875.56;4880451;29;20052;-61
2022/06/29 13:21:36;;;;;;;3.53;2.00;;;;;;;31.90;40.37;99884.81;4880832;29;20120;-59
2022/06/29 13:24:02;;;;;;;3.08;2.10;;;;;;;31.92;38.25;99878.97;4880702;29;20040;-61
2022/06/29 13:26:27;;;;;;;3.90;2.70;;;;;;;31.63;38.38;99871.34;4880819;29;20037;-61
2022/06/29 13:28:53;;;;;;;2.40;2.20;;;;;;;31.19;40.89;99875.91;4894723;29;20053;-61
2022/06/29 13:31:18;;;;;;;2.43;2.20;;;;;;;31.00;40.09;99868.72;4880657;29;20040;-61
2022/06/29 13:33:44;;;;;;;2.43;2.00;;;;;;;30.40;41.09;99877.47;4880559;29;20452;-61
2022/06/29 13:36:09;;;;;;;3.45;2.53;;;;;;;30.38;39.92;99884.41;4880538;29;20044;-61
2022/06/29 13:38:35;;;;;;;4.15;2.10;;;;;;;29.96;40.69;99873.56;4894696;29;20418;-61
2022/06/29 13:41:00;;;;;;;4.43;2.63;;;;;;;29.28;43.21;99868.22;4880448;29;20049;-61
2022/06/29 13:43:26;;;;;;;2.42;2.22;;;;;;;29.17;43.15;99867.63;4879275;29;20036;-61
2022/06/29 13:45:51;;;;;;;4.95;2.33;;;;;;;28.77;43.07;99855.53;4880360;29;20502;-58
2022/06/29 13:48:17;;;;;;;4.70;2.20;;;;;;;28.92;46.22;99866.22;4880070;29;20105;-61
2022/06/29 13:50:45;;;;;;;4.05;2.30;;;;;;;29.00;46.18;99867.44;4880108;29;20048;-61
2022/06/29 13:53:10;;;;;;;2.85;2.20;;;;;;;29.01;43.75;99880.00;4880190;29;20053;-61
2022/06/29 13:55:36;;;;;;;2.75;2.30;;;;;;;29.05;45.15;99870.88;4880223;29;20092;-60
2022/06/29 13:58:02;;;;;;;3.83;2.33;;;;;;;28.91;46.46;99864.56;4878790;29;20068;-59
2022/06/29 14:00:29;;;;;;;3.45;2.20;;;;;;;28.94;44.38;99872.19;4879983;29;20066;-57
2022/06/29 14:02:54;;;;;;;2.53;2.30;;;;;;;28.88;44.01;99868.72;4880167;29;20045;-60
2022/06/29 14:05:20;;;;;;;3.85;2.05;;;;;;;28.78;44.50;99859.88;4880251;29;20415;-60
2022/06/29 14:07:45;;;;;;;3.97;2.60;;;;;;;28.89;46.97;99861.31;4880063;29;20107;-61
2022/06/29 14:10:11;;;;;;;3.00;2.70;;;;;;;28.91;45.40;99868.16;4879817;29;20076;-61
2022/06/29 14:12:36;;;;;;;2.85;2.47;;;;;;;28.79;44.29;99867.81;4880044;29;20033;-61
2022/06/29 14:15:02;;;;;;;4.68;2.45;;;;;;;28.74;44.20;99864.34;4879976;29;20101;-60
2022/06/29 14:17:27;;;;;;;3.80;2.35;;;;;;;28.76;44.98;99873.91;4879629;29;20065;-61
2022/06/29 14:19:53;;;;;;;2.40;2.00;;;;;;;28.40;44.89;99868.25;4879522;29;20057;-61
2022/06/29 14:22:18;;;;;;;2.83;2.22;;;;;;;28.46;45.57;99858.00;4878958;29;20044;-61
2022/06/29 14:24:44;;;;;;;5.47;2.97;;;;;;;28.45;46.10;99859.13;4879812;29;20128;-61
2022/06/29 14:27:09;;;;;;;3.45;2.30;;;;;;;28.28;45.23;99857.72;4879566;29;20052;-61
2022/06/29 14:29:36;;;;;;;3.55;2.30;;;;;;;28.23;46.17;99849.59;4879334;29;20147;-61
2022/06/29 14:32:01;;;;;;;4.40;2.40;;;;;;;28.25;45.39;99855.59;4878361;29;20185;-61
2022/06/29 14:34:27;;;;;;;2.88;2.22;;;;;;;28.27;44.62;99852.56;4879680;29;20539;-61
2022/06/29 14:36:52;;;;;;;2.72;2.13;;;;;;;28.42;45.78;99846.03;4879503;29;20075;-61
2022/06/29 14:39:18;;;;;;;8.82;2.75;;;;;;;28.45;45.47;99843.50;4879198;29;20157;-60
2022/06/29 14:41:44;;;;;;;4.47;2.17;;;;;;;28.44;44.95;99841.88;4879418;29;20033;-61
2022/06/29 14:44:10;;;;;;;3.45;2.22;;;;;;;28.51;46.17;99850.53;4879083;29;20033;-61
2022/06/29 14:46:36;;;;;;;2.80;2.00;;;;;;;28.48;44.88;99840.16;4878109;29;20512;-59
2022/06/29 14:49:01;;;;;;;2.92;2.33;;;;;;;28.53;45.37;99840.06;4877850;29;20372;-61
2022/06/29 14:51:27;;;;;;;3.30;2.40;;;;;;;28.53;44.59;99840.06;4879238;29;20052;-61
2022/06/29 14:53:52;;;;;;;4.22;2.40;;;;;;;28.51;44.21;99845.03;4879093;29;20037;-61
2022/06/29 14:56:19;;;;;;;3.28;2.35;;;;;;;28.66;46.11;99841.19;4877731;29;20507;-61
2022/06/29 14:58:45;;;;;;;2.90;2.28;;;;;;;28.69;47.24;99842.50;4878789;29;20056;-60
2022/06/29 15:01:10;;;;;;;2.20;1.98;;;;;;;28.57;46.49;99837.53;4878662;29;20041;-61
2022/06/29 15:03:36;;;;;;;2.75;1.80;;;;;;;28.56;44.58;99836.75;4878788;29;20071;-61
2022/06/29 15:06:02;;;;;;;3.45;2.00;;;;;;;28.55;44.33;99835.09;4878284;29;20402;-61
2022/06/29 15:08:27;;;;;;;3.72;1.92;;;;;;;28.50;44.78;99832.47;4878242;29;20040;-61
2022/06/29 15:10:53;;;;;;;3.05;2.15;;;;;;;28.41;45.18;99825.22;4877051;29;20111;-62
2022/06/29 15:13:19;;;;;;;2.40;1.90;;;;;;;28.32;44.69;99820.44;4878493;29;20041;-61
2022/06/29 15:15:46;;;;;;;3.53;1.90;;;;;;;28.24;45.33;99817.56;4878198;29;20112;-61
2022/06/29 15:18:13;;;;;;;3.03;2.42;;;;;;;28.21;45.48;99813.50;4878192;29;20143;-61
2022/06/29 15:20:39;;;;;;;2.78;2.10;;;;;;;28.30;44.89;99816.34;4878140;29;20040;-61
2022/06/29 15:23:04;;;;;;;2.20;2.00;;;;;;;28.32;44.51;99814.16;4878431;29;20436;-61
2022/06/29 15:25:30;;;;;;;3.55;1.98;;;;;;;28.25;43.75;99810.97;4878347;29;20040;-61
2022/06/29 15:27:55;;;;;;;4.05;1.77;;;;;;;28.16;43.61;99810.03;4878442;29;20068;-60
2022/06/29 15:30:21;;;;;;;3.78;2.17;;;;;;;28.11;43.59;99805.47;4878020;29;20519;-61
2022/06/29 15:32:47;;;;;;;4.05;2.15;;;;;;;28.08;43.80;99804.13;4878267;29;20083;-63
2022/06/29 15:40:41;;;;;;;3.00;2.33;;;;;;;28.22;44.79;99792.41;4877993;29;20053;-62
2022/06/29 15:43:07;;;;;;;3.00;2.08;;;;;;;28.26;45.38;99787.97;4892630;29;20045;-61
2022/06/29 15:45:32;;;;;;;4.07;1.95;;;;;;;28.22;44.36;99786.91;4878177;29;20059;-60
2022/06/29 15:47:58;;;;;;;2.97;1.85;;;;;;;28.26;44.76;99787.97;4877982;29;20040;-61
2022/06/29 15:50:23;;;;;;;3.03;2.20;;;;;;;28.20;45.23;99784.50;4876565;29;20051;-62
2022/06/29 15:52:49;;;;;;;3.25;2.30;;;;;;;28.18;43.92;99773.03;4877743;29;20526;-61
2022/06/29 15:57:58;;;;;;;3.72;2.22;;;;;;;28.18;44.02;99774.97;4877834;29;20060;-62
2022/06/29 16:00:24;;;;;;;3.15;2.70;;;;;;;28.21;44.72;99764.22;4877916;29;20399;-62
2022/06/29 16:02:50;;;;;;;3.08;2.33;;;;;;;28.25;44.86;99767.97;4877066;29;20072;-62
2022/06/29 16:05:15;;;;;;;3.70;3.03;;;;;;;28.31;44.91;99763.25;4878003;29;20029;-61
2022/06/29 16:07:41;;;;;;;3.92;2.50;;;;;;;28.29;44.77;99765.44;4877869;29;20120;-62
2022/06/29 16:10:07;;;;;;;3.23;2.10;;;;;;;28.22;44.35;99754.88;4877802;29;20044;-63
2022/06/29 16:12:32;;;;;;;3.20;2.28;;;;;;;28.17;43.03;99757.72;4877942;29;20045;-62
2022/06/29 16:14:58;;;;;;;2.45;2.05;;;;;;;28.13;43.71;99752.03;4877997;29;20088;-62
2022/06/29 16:17:24;;;;;;;3.47;2.15;;;;;;;28.15;44.32;99757.19;4877813;29;20068;-62
2022/06/29 16:19:50;;;;;;;3.10;2.20;;;;;;;28.18;44.89;99742.13;4877655;29;20045;-61